Time;durP1;ratioP1;P1;durP2;ratioP2;P2;SDS_P1;SDS_P2;PMS_P1;PMS_P2;Temp;Humidity;BMP_temperature;BMP_pressure;BME280_temperature;BME280_humidity;BME280_pressure;Samples;Min_cycle;Max_cycle;Signal;HPM_P1;HPM_P2
2022/08/30 00:03:05;;;;;;;;;;;22.10;67.20;;;;;;5044812;28;86517;-42
2022/08/30 00:05:32;;;;;;;;;;;22.10;67.20;;;;;;5044328;27;87523;-41
2022/08/30 00:07:58;;;;;;;;;;;22.10;67.20;;;;;;5044540;27;87406;-42
2022/08/30 00:10:24;;;;;;;;;;;22.00;67.10;;;;;;5043466;27;88313;-42
2022/08/30 00:12:49;;;;;;;;;;;22.00;67.20;;;;;;5044293;27;87077;-42
2022/08/30 00:15:16;;;;;;;;;;;22.00;67.20;;;;;;5043441;28;87499;-42
2022/08/30 00:17:42;;;;;;;;;;;22.00;67.30;;;;;;5046878;28;88009;-42
2022/08/30 00:20:11;;;;;;;;;;;21.90;67.30;;;;;;5043937;27;86982;-42
2022/08/30 00:22:37;;;;;;;;;;;22.00;67.30;;;;;;5043488;27;89368;-42
2022/08/30 00:25:03;;;;;;;;;;;21.90;67.30;;;;;;5044344;27;87127;-42
2022/08/30 00:27:29;;;;;;;;;;;21.90;67.30;;;;;;5044346;27;89994;-42
2022/08/30 00:29:55;;;;;;;;;;;21.90;67.30;;;;;;5043451;28;89014;-42
2022/08/30 00:32:21;;;;;;;;;;;21.90;67.30;;;;;;5043797;27;87161;-42
2022/08/30 00:34:47;;;;;;;;;;;21.90;67.30;;;;;;5043299;27;88015;-42
2022/08/30 00:37:13;;;;;;;;;;;21.90;67.30;;;;;;5043579;28;88034;-42
2022/08/30 00:39:39;;;;;;;;;;;21.80;67.30;;;;;;5046684;27;87043;-42
2022/08/30 00:42:04;;;;;;;;;;;21.80;67.40;;;;;;5043563;28;87333;-42
2022/08/30 00:44:30;;;;;;;;;;;21.80;67.50;;;;;;5043678;27;87401;-42
2022/08/30 00:46:55;;;;;;;;;;;21.80;67.40;;;;;;5044135;28;87555;-42
2022/08/30 00:49:21;;;;;;;;;;;21.80;67.40;;;;;;5043491;28;88636;-42
2022/08/30 00:51:46;;;;;;;;;;;21.80;67.50;;;;;;5044426;27;86362;-42
2022/08/30 00:54:12;;;;;;;;;;;21.80;67.50;;;;;;5043667;27;86979;-42
2022/08/30 00:56:38;;;;;;;;;;;21.80;67.50;;;;;;5043195;27;87138;-42
2022/08/30 00:59:04;;;;;;;;;;;21.80;67.60;;;;;;5046086;27;88781;-42
2022/08/30 01:01:31;;;;;;;;;;;21.70;67.40;;;;;;5043264;27;88232;-42
2022/08/30 01:03:57;;;;;;;;;;;21.70;67.40;;;;;;5043591;27;87073;-42
2022/08/30 01:06:24;;;;;;;;;;;21.80;67.50;;;;;;5043506;28;87274;-42
2022/08/30 01:08:50;;;;;;;;;;;21.70;67.40;;;;;;5043021;27;87845;-42
2022/08/30 01:11:18;;;;;;;;;;;21.70;67.40;;;;;;5043284;27;87048;-42
2022/08/30 01:13:46;;;;;;;;;;;21.70;67.50;;;;;;5043164;27;87355;-42
2022/08/30 01:16:11;;;;;;;;;;;21.70;67.50;;;;;;5043546;27;87694;-42
2022/08/30 01:18:38;;;;;;;;;;;21.70;67.50;;;;;;5043089;27;87107;-42
2022/08/30 01:21:07;;;;;;;;;;;21.60;67.40;;;;;;5046089;28;87535;-42
2022/08/30 01:23:34;;;;;;;;;;;21.70;67.50;;;;;;5042366;27;88330;-42
2022/08/30 01:26:01;;;;;;;;;;;21.60;67.50;;;;;;5043107;27;88383;-42
2022/08/30 01:28:27;;;;;;;;;;;21.60;67.40;;;;;;5042436;27;89806;-42
2022/08/30 01:30:53;;;;;;;;;;;21.60;67.40;;;;;;5043294;27;87022;-42
2022/08/30 01:33:19;;;;;;;;;;;21.60;67.40;;;;;;5043222;28;87459;-42
2022/08/30 01:35:52;;;;;;;;;;;21.60;67.40;;;;;;5042880;27;88157;-42
2022/08/30 01:38:19;;;;;;;;;;;21.60;67.40;;;;;;5042865;27;87317;-42
2022/08/30 01:40:45;;;;;;;;;;;21.60;67.50;;;;;;5043394;27;86567;-42
2022/08/30 01:43:11;;;;;;;;;;;21.50;67.50;;;;;;5045414;28;89597;-42
2022/08/30 01:45:37;;;;;;;;;;;21.60;67.50;;;;;;5042845;28;87440;-42
2022/08/30 01:48:02;;;;;;;;;;;21.50;67.40;;;;;;5042025;28;88937;-42
2022/08/30 01:50:28;;;;;;;;;;;21.50;68.00;;;;;;5043012;27;87121;-42
2022/08/30 01:52:54;;;;;;;;;;;21.50;67.50;;;;;;5042940;27;88142;-42
2022/08/30 01:55:19;;;;;;;;;;;21.50;67.50;;;;;;5042085;27;88514;-42
2022/08/30 01:57:45;;;;;;;;;;;21.50;67.50;;;;;;5042755;28;87182;-42
2022/08/30 02:00:11;;;;;;;;;;;21.50;67.50;;;;;;5042972;27;87276;-42
2022/08/30 02:02:37;;;;;;;;;;;21.50;67.50;;;;;;5042265;27;88930;-42
2022/08/30 02:05:03;;;;;;;;;;;21.50;67.50;;;;;;5046336;27;86649;-42
2022/08/30 02:07:28;;;;;;;;;;;21.50;67.40;;;;;;5042131;27;90135;-42
2022/08/30 02:09:55;;;;;;;;;;;21.50;67.40;;;;;;5042630;27;87127;-42
2022/08/30 02:12:21;;;;;;;;;;;21.50;67.40;;;;;;5041859;27;87935;-42
2022/08/30 02:14:46;;;;;;;;;;;21.40;67.40;;;;;;5042360;28;88179;-41
2022/08/30 02:17:13;;;;;;;;;;;21.40;67.40;;;;;;5042608;28;87139;-42
2022/08/30 02:19:39;;;;;;;;;;;21.50;67.50;;;;;;5042245;28;87562;-42
2022/08/30 02:22:05;;;;;;;;;;;21.40;67.40;;;;;;5041586;28;88162;-42
2022/08/30 02:24:30;;;;;;;;;;;21.40;67.40;;;;;;5042522;27;87203;-42
2022/08/30 02:26:56;;;;;;;;;;;21.30;67.50;;;;;;5044883;28;87483;-42
2022/08/30 02:29:22;;;;;;;;;;;21.40;67.50;;;;;;5042916;27;86374;-42
2022/08/30 02:31:48;;;;;;;;;;;21.40;67.50;;;;;;5042370;27;88370;-42
2022/08/30 02:34:14;;;;;;;;;;;21.40;67.60;;;;;;5042032;28;88073;-42
2022/08/30 02:36:40;;;;;;;;;;;21.40;67.60;;;;;;5041597;27;88568;-42
2022/08/30 02:39:06;;;;;;;;;;;21.40;67.40;;;;;;5045307;28;88727;-42
2022/08/30 02:41:32;;;;;;;;;;;21.40;67.40;;;;;;5045352;27;87252;-41
2022/08/30 02:43:59;;;;;;;;;;;21.40;67.50;;;;;;5045820;28;87209;-42
2022/08/30 02:46:25;;;;;;;;;;;21.30;67.40;;;;;;5045477;27;88778;-42
2022/08/30 02:48:51;;;;;;;;;;;21.30;67.40;;;;;;5048267;28;88853;-42
2022/08/30 02:51:17;;;;;;;;;;;21.30;67.40;;;;;;5045405;27;88585;-42
2022/08/30 02:53:43;;;;;;;;;;;21.30;67.40;;;;;;5045810;28;87244;-43
2022/08/30 02:56:09;;;;;;;;;;;21.30;67.40;;;;;;5045403;28;87095;-42
2022/08/30 02:58:34;;;;;;;;;;;21.30;67.40;;;;;;5045834;28;87195;-42
2022/08/30 03:01:00;;;;;;;;;;;21.30;67.50;;;;;;5044603;27;89191;-42
2022/08/30 03:03:26;;;;;;;;;;;21.30;67.50;;;;;;5045248;27;87108;-42
2022/08/30 03:05:51;;;;;;;;;;;21.30;67.40;;;;;;5045584;28;87782;-42
2022/08/30 03:08:17;;;;;;;;;;;21.30;67.40;;;;;;5048164;28;88144;-42
2022/08/30 03:10:43;;;;;;;;;;;21.20;67.50;;;;;;5045008;28;87453;-42
2022/08/30 03:13:08;;;;;;;;;;;21.20;67.50;;;;;;5045051;27;88022;-42
2022/08/30 03:15:34;;;;;;;;;;;21.20;67.40;;;;;;5045344;28;87096;-42
2022/08/30 03:18:00;;;;;;;;;;;21.20;67.60;;;;;;5045905;28;87577;-42
2022/08/30 03:20:26;;;;;;;;;;;21.20;67.60;;;;;;5044892;27;87929;-42
2022/08/30 03:22:52;;;;;;;;;;;21.20;67.60;;;;;;5044820;27;87123;-42
2022/08/30 03:25:19;;;;;;;;;;;21.20;67.60;;;;;;5044653;27;87979;-42
2022/08/30 03:27:45;;;;;;;;;;;21.20;67.50;;;;;;5044588;28;88512;-42
2022/08/30 03:30:11;;;;;;;;;;;21.10;67.50;;;;;;5047812;27;87062;-42
2022/08/30 03:32:37;;;;;;;;;;;21.10;67.50;;;;;;5044604;28;88684;-42
2022/08/30 03:35:03;;;;;;;;;;;21.10;67.60;;;;;;5045101;28;87485;-42
2022/08/30 03:37:28;;;;;;;;;;;21.10;67.60;;;;;;5044859;28;88867;-42
2022/08/30 03:39:54;;;;;;;;;;;21.10;67.60;;;;;;5044349;28;87973;-42
2022/08/30 03:42:20;;;;;;;;;;;21.10;67.60;;;;;;5045263;27;86353;-42
2022/08/30 03:44:45;;;;;;;;;;;21.10;67.60;;;;;;5044830;27;86919;-42
2022/08/30 03:47:11;;;;;;;;;;;21.10;67.60;;;;;;5044451;28;88164;-42
2022/08/30 03:49:37;;;;;;;;;;;21.10;67.60;;;;;;5043019;27;88047;-42
2022/08/30 03:52:03;;;;;;;;;;;21.00;67.70;;;;;;5047190;27;89699;-42
2022/08/30 03:54:28;;;;;;;;;;;21.00;67.60;;;;;;5044498;28;87044;-42
2022/08/30 03:56:54;;;;;;;;;;;21.00;67.50;;;;;;5044775;28;87412;-42
2022/08/30 03:59:20;;;;;;;;;;;21.00;67.50;;;;;;5044102;27;89387;-42
2022/08/30 04:01:46;;;;;;;;;;;21.10;67.60;;;;;;5044597;28;87060;-42
2022/08/30 04:04:12;;;;;;;;;;;21.00;67.60;;;;;;5044264;28;88841;-42
2022/08/30 04:06:37;;;;;;;;;;;21.00;67.60;;;;;;5044659;27;87304;-42
2022/08/30 04:09:03;;;;;;;;;;;21.00;67.60;;;;;;5044350;28;87092;-42
2022/08/30 04:11:28;;;;;;;;;;;21.00;67.60;;;;;;5044238;27;87335;-42
2022/08/30 04:13:55;;;;;;;;;;;21.00;67.70;;;;;;5046456;28;88966;-42
2022/08/30 04:16:22;;;;;;;;;;;20.90;67.70;;;;;;5044001;27;90144;-44
2022/08/30 04:18:48;;;;;;;;;;;21.00;67.60;;;;;;5043978;28;88011;-42
2022/08/30 04:21:14;;;;;;;;;;;21.00;67.60;;;;;;5043887;28;87238;-42
2022/08/30 04:23:40;;;;;;;;;;;21.00;67.60;;;;;;5043989;27;88854;-42
2022/08/30 04:26:05;;;;;;;;;;;21.00;67.60;;;;;;5043743;27;87904;-42
2022/08/30 04:28:32;;;;;;;;;;;20.90;67.60;;;;;;5043958;28;87122;-42
2022/08/30 04:30:58;;;;;;;;;;;20.90;67.60;;;;;;5044260;27;88296;-42
2022/08/30 04:33:23;;;;;;;;;;;20.90;68.20;;;;;;5043517;27;89591;-42
2022/08/30 04:35:49;;;;;;;;;;;21.00;67.60;;;;;;5046993;28;87088;-42
2022/08/30 04:38:15;;;;;;;;;;;20.90;67.50;;;;;;5043094;28;88969;-42
2022/08/30 04:40:47;;;;;;;;;;;20.90;67.40;;;;;;5043757;27;87155;-42
2022/08/30 04:43:13;;;;;;;;;;;20.90;67.50;;;;;;5043933;27;89016;-42
2022/08/30 04:45:39;;;;;;;;;;;20.90;67.60;;;;;;5043608;27;87976;-42
2022/08/30 04:48:05;;;;;;;;;;;20.90;67.60;;;;;;5043763;27;87118;-42
2022/08/30 04:50:30;;;;;;;;;;;20.90;67.50;;;;;;5043728;27;87394;-42
2022/08/30 04:52:56;;;;;;;;;;;20.90;67.50;;;;;;5043443;28;88164;-42
2022/08/30 04:55:23;;;;;;;;;;;20.90;67.50;;;;;;5044095;28;86246;-42
2022/08/30 04:57:49;;;;;;;;;;;20.90;67.50;;;;;;5046162;27;87281;-42
2022/08/30 05:00:15;;;;;;;;;;;20.90;67.60;;;;;;5043104;27;87104;-42
2022/08/30 05:02:41;;;;;;;;;;;20.90;68.20;;;;;;5043082;27;88212;-42
2022/08/30 05:07:51;;;;;;;;;;;20.80;67.60;;;;;;5043426;28;86998;-42
2022/08/30 05:10:17;;;;;;;;;;;20.80;67.70;;;;;;5043485;28;87541;-42
2022/08/30 05:12:42;;;;;;;;;;;20.80;67.70;;;;;;5043115;28;88118;-42
2022/08/30 05:15:08;;;;;;;;;;;20.80;67.70;;;;;;5043482;28;87107;-42
2022/08/30 05:17:35;;;;;;;;;;;20.80;67.50;;;;;;5045777;27;89069;-42
2022/08/30 05:20:01;;;;;;;;;;;20.80;67.50;;;;;;5043604;28;86646;-42
2022/08/30 05:22:27;;;;;;;;;;;20.80;67.60;;;;;;5042634;27;88118;-42
2022/08/30 05:24:52;;;;;;;;;;;20.80;67.50;;;;;;5043048;27;87839;-42
2022/08/30 05:27:18;;;;;;;;;;;20.80;67.50;;;;;;5042632;27;87997;-42
2022/08/30 05:29:43;;;;;;;;;;;20.80;67.60;;;;;;5043186;28;88493;-42
2022/08/30 05:32:09;;;;;;;;;;;20.80;67.60;;;;;;5042865;28;88377;-42
2022/08/30 05:34:34;;;;;;;;;;;20.80;67.60;;;;;;5042983;27;87203;-42
2022/08/30 05:37:01;;;;;;;;;;;20.80;67.60;;;;;;5042821;27;89014;-42
2022/08/30 05:39:27;;;;;;;;;;;20.80;67.50;;;;;;5045632;27;86986;-42
2022/08/30 05:41:56;;;;;;;;;;;20.70;67.70;;;;;;5043126;27;87472;-42
2022/08/30 05:44:22;;;;;;;;;;;20.80;67.60;;;;;;5043086;28;87436;-42
2022/08/30 05:46:48;;;;;;;;;;;20.80;67.60;;;;;;5043044;28;87105;-42
2022/08/30 05:49:14;;;;;;;;;;;20.70;67.50;;;;;;5042842;27;87161;-42
2022/08/30 05:51:40;;;;;;;;;;;20.70;67.50;;;;;;5041284;27;90746;-41
2022/08/30 05:54:06;;;;;;;;;;;20.70;67.50;;;;;;5042767;27;87144;-42
2022/08/30 05:56:33;;;;;;;;;;;20.80;67.60;;;;;;5043107;28;87350;-41
2022/08/30 05:58:59;;;;;;;;;;;20.70;67.60;;;;;;5042355;27;88232;-42
2022/08/30 06:01:26;;;;;;;;;;;20.70;67.60;;;;;;5045716;27;87095;-42
2022/08/30 06:03:53;;;;;;;;;;;20.70;67.60;;;;;;5042359;27;88215;-42
2022/08/30 06:06:19;;;;;;;;;;;20.70;67.60;;;;;;5042234;27;87092;-42
2022/08/30 06:08:46;;;;;;;;;;;20.70;67.50;;;;;;5043317;27;87265;-42
2022/08/30 06:11:12;;;;;;;;;;;20.70;67.50;;;;;;5042072;27;89308;-42
2022/08/30 06:13:38;;;;;;;;;;;20.70;67.50;;;;;;5045097;27;87100;-42
2022/08/30 06:16:04;;;;;;;;;;;20.70;67.50;;;;;;5045737;28;87913;-42
2022/08/30 06:18:30;;;;;;;;;;;20.70;67.50;;;;;;5045952;27;88249;-42
2022/08/30 06:20:56;;;;;;;;;;;20.70;67.60;;;;;;5045557;27;87119;-42
2022/08/30 06:23:21;;;;;;;;;;;20.70;67.60;;;;;;5048565;28;87382;-42
2022/08/30 06:25:47;;;;;;;;;;;20.70;67.50;;;;;;5045994;27;87059;-42
2022/08/30 06:28:13;;;;;;;;;;;20.70;67.60;;;;;;5045952;27;89071;-42
2022/08/30 06:30:39;;;;;;;;;;;20.70;67.60;;;;;;5045538;28;87161;-42
2022/08/30 06:33:05;;;;;;;;;;;20.70;67.60;;;;;;5046580;27;86325;-42
2022/08/30 06:35:30;;;;;;;;;;;20.70;67.60;;;;;;5045721;27;87219;-42
2022/08/30 06:37:56;;;;;;;;;;;20.70;67.60;;;;;;5045635;27;87957;-42
2022/08/30 06:40:21;;;;;;;;;;;20.60;67.50;;;;;;5045263;28;88023;-42
2022/08/30 06:42:47;;;;;;;;;;;20.70;67.60;;;;;;5045777;27;89716;-42
2022/08/30 06:45:14;;;;;;;;;;;20.60;67.60;;;;;;5048454;27;87142;-42
2022/08/30 06:47:39;;;;;;;;;;;20.60;67.50;;;;;;5045747;28;87057;-42
2022/08/30 06:50:05;;;;;;;;;;;20.60;67.50;;;;;;5044839;27;89625;-42
2022/08/30 06:52:31;;;;;;;;;;;20.60;67.60;;;;;;5045544;27;87078;-43
2022/08/30 06:54:57;;;;;;;;;;;20.60;67.60;;;;;;5045688;27;87674;-42
2022/08/30 06:57:23;;;;;;;;;;;20.60;67.70;;;;;;5045539;27;88527;-42
2022/08/30 06:59:53;;;;;;;;;;;20.60;67.60;;;;;;5045480;28;86954;-42
2022/08/30 07:02:19;;;;;;;;;;;20.70;67.60;;;;;;5045498;27;87368;-42
2022/08/30 07:04:44;;;;;;;;;;;20.60;67.50;;;;;;5044549;28;89113;-42
2022/08/30 07:07:10;;;;;;;;;;;20.70;67.50;;;;;;5048137;27;87031;-42
2022/08/30 07:09:41;;;;;;;;;;;20.70;67.50;;;;;;5044997;27;88038;-42
2022/08/30 07:12:08;;;;;;;;;;;20.60;67.40;;;;;;5045375;27;87408;-42
2022/08/30 07:14:33;;;;;;;;;;;20.60;67.50;;;;;;5045335;28;87440;-42
2022/08/30 07:16:59;;;;;;;;;;;20.60;67.50;;;;;;5044965;28;88009;-42
2022/08/30 07:19:24;;;;;;;;;;;20.70;67.60;;;;;;5045014;28;87103;-42
2022/08/30 07:21:50;;;;;;;;;;;20.60;67.60;;;;;;5045026;28;87381;-42
2022/08/30 07:24:15;;;;;;;;;;;20.60;67.50;;;;;;5044536;28;88026;-42
2022/08/30 07:26:42;;;;;;;;;;;20.60;67.60;;;;;;5047998;27;87104;-41
2022/08/30 07:29:08;;;;;;;;;;;20.60;67.70;;;;;;5043821;27;90438;-42
2022/08/30 07:31:35;;;;;;;;;;;20.60;67.60;;;;;;5044744;27;87096;-42
2022/08/30 07:34:06;;;;;;;;;;;20.60;67.50;;;;;;5044656;27;88957;-42
2022/08/30 07:36:32;;;;;;;;;;;20.60;67.50;;;;;;5044545;27;90648;-42
2022/08/30 07:38:58;;;;;;;;;;;20.60;67.60;;;;;;5044607;27;87017;-42
2022/08/30 07:41:26;;;;;;;;;;;20.60;67.60;;;;;;5045225;28;87171;-43
2022/08/30 07:43:51;;;;;;;;;;;20.50;67.60;;;;;;5044335;27;89304;-43
2022/08/30 07:46:17;;;;;;;;;;;20.60;67.60;;;;;;5045456;28;86397;-42
2022/08/30 07:48:43;;;;;;;;;;;20.60;67.60;;;;;;5047067;27;86932;-43
2022/08/30 07:51:09;;;;;;;;;;;20.50;67.60;;;;;;5044427;27;87022;-42
2022/08/30 07:53:35;;;;;;;;;;;20.50;67.60;;;;;;5044366;27;88266;-43
2022/08/30 07:56:00;;;;;;;;;;;20.50;67.90;;;;;;5044277;27;88122;-42
2022/08/30 07:58:26;;;;;;;;;;;20.50;67.70;;;;;;5044668;27;87018;-43
2022/08/30 08:00:52;;;;;;;;;;;20.50;67.60;;;;;;5044842;27;87366;-42
2022/08/30 08:03:18;;;;;;;;;;;20.50;67.70;;;;;;5043856;27;89341;-44
2022/08/30 08:05:43;;;;;;;;;;;20.50;67.60;;;;;;5044243;27;87151;-43
2022/08/30 08:08:09;;;;;;;;;;;20.50;67.60;;;;;;5044556;28;87510;-42
2022/08/30 08:10:36;;;;;;;;;;;20.50;67.60;;;;;;5047368;27;87372;-43
2022/08/30 08:13:02;;;;;;;;;;;20.50;67.70;;;;;;5044460;27;86963;-43
2022/08/30 08:15:27;;;;;;;;;;;20.50;67.90;;;;;;5043962;27;88304;-42
2022/08/30 08:17:53;;;;;;;;;;;20.50;67.80;;;;;;5043460;27;88081;-43
2022/08/30 08:20:19;;;;;;;;;;;20.50;67.80;;;;;;5044095;28;88375;-42
2022/08/30 08:22:45;;;;;;;;;;;20.40;67.80;;;;;;5043077;27;88855;-43
2022/08/30 08:25:10;;;;;;;;;;;20.50;68.00;;;;;;5044313;28;87073;-42
2022/08/30 08:27:36;;;;;;;;;;;20.50;68.10;;;;;;5044270;28;87472;-44
2022/08/30 08:30:01;;;;;;;;;;;20.40;68.10;;;;;;5043837;28;88007;-43
2022/08/30 08:32:27;;;;;;;;;;;20.40;68.00;;;;;;5047126;27;87075;-42
2022/08/30 08:34:52;;;;;;;;;;;20.40;68.60;;;;;;5043454;27;87411;-42
2022/08/30 08:37:20;;;;;;;;;;;20.40;68.00;;;;;;5043862;28;86960;-42
2022/08/30 08:39:45;;;;;;;;;;;20.40;68.00;;;;;;5043630;28;89105;-42
2022/08/30 08:42:11;;;;;;;;;;;20.40;68.00;;;;;;5042841;28;89019;-42
2022/08/30 08:44:49;;;;;;;;;;;20.40;68.00;;;;;;5043773;27;87293;-42
2022/08/30 08:47:28;;;;;;;;;;;20.40;67.90;;;;;;5044051;27;87215;-43
2022/08/30 08:49:55;;;;;;;;;;;20.40;67.90;;;;;;5043540;27;89463;-42
2022/08/30 08:55:12;;;;;;;;;;;20.40;67.90;;;;;;5046495;28;86997;-43
2022/08/30 08:57:37;;;;;;;;;;;20.40;67.90;;;;;;5043532;28;87102;-42
2022/08/30 09:00:04;;;;;;;;;;;20.40;67.80;;;;;;5043799;28;88169;-43
2022/08/30 09:02:44;;;;;;;;;;;20.40;67.90;;;;;;5043294;28;88029;-43
2022/08/30 09:05:16;;;;;;;;;;;20.40;67.90;;;;;;5043492;27;87102;-42
2022/08/30 09:07:44;;;;;;;;;;;20.40;67.80;;;;;;5042940;27;88036;-42
2022/08/30 09:10:09;;;;;;;;;;;20.50;67.80;;;;;;5042806;28;88647;-43
2022/08/30 09:12:35;;;;;;;;;;;20.40;67.80;;;;;;5043560;27;87105;-42
2022/08/30 09:15:06;;;;;;;;;;;20.40;67.90;;;;;;5046259;28;87426;-43
2022/08/30 09:17:46;;;;;;;;;;;20.40;67.70;;;;;;5043264;27;87168;-44
2022/08/30 09:20:22;;;;;;;;;;;20.40;67.70;;;;;;5043233;27;87073;-43
2022/08/30 09:22:47;;;;;;;;;;;20.40;67.70;;;;;;5042500;27;88122;-42
2022/08/30 09:25:16;;;;;;;;;;;20.50;67.80;;;;;;5043875;28;86269;-42
2022/08/30 09:27:43;;;;;;;;;;;20.50;67.60;;;;;;5043278;28;86917;-42
2022/08/30 09:30:23;;;;;;;;;;;20.50;67.60;;;;;;5042593;27;88414;-43
2022/08/30 09:32:52;;;;;;;;;;;20.50;67.60;;;;;;5042523;27;88015;-43
2022/08/30 09:35:25;;;;;;;;;;;20.50;67.50;;;;;;5042860;27;87879;-42
2022/08/30 09:37:51;;;;;;;;;;;20.50;67.50;;;;;;5045554;27;87993;-42
2022/08/30 09:40:22;;;;;;;;;;;20.50;67.50;;;;;;5042930;27;89542;-43
2022/08/30 09:43:06;;;;;;;;;;;20.50;67.40;;;;;;5042652;28;88018;-42
2022/08/30 09:45:34;;;;;;;;;;;20.50;67.40;;;;;;5042744;27;87093;-42
2022/08/30 09:48:19;;;;;;;;;;;20.50;67.50;;;;;;5042661;27;89307;-42
2022/08/30 09:50:45;;;;;;;;;;;20.50;67.20;;;;;;5042957;27;87455;-42
2022/08/30 09:53:14;;;;;;;;;;;20.50;67.40;;;;;;5042762;27;87107;-42
2022/08/30 09:55:50;;;;;;;;;;;20.50;67.60;;;;;;5042649;27;89084;-42
2022/08/30 09:58:28;;;;;;;;;;;20.50;67.50;;;;;;5041338;27;90366;-42
2022/08/30 10:01:06;;;;;;;;;;;20.50;67.60;;;;;;5046009;27;86977;-42
2022/08/30 10:03:52;;;;;;;;;;;20.50;67.60;;;;;;5042364;27;89519;-42
2022/08/30 10:06:23;;;;;;;;;;;20.50;67.60;;;;;;5042053;28;87145;-42
2022/08/30 10:08:52;;;;;;;;;;;20.50;67.60;;;;;;5042590;27;87302;-43
2022/08/30 10:11:21;;;;;;;;;;;20.50;67.60;;;;;;5042315;28;88386;-42
2022/08/30 10:13:50;;;;;;;;;;;20.50;67.60;;;;;;5042526;27;87095;-42
2022/08/30 10:16:15;;;;;;;;;;;20.50;67.60;;;;;;5042919;28;87017;-42
2022/08/30 10:18:47;;;;;;;;;;;20.50;67.90;;;;;;5042440;28;87203;-42
2022/08/30 10:21:20;;;;;;;;;;;20.50;67.60;;;;;;5042230;27;86963;-42
2022/08/30 10:23:50;;;;;;;;;;;20.60;67.60;;;;;;5044435;27;87899;-42
2022/08/30 10:26:35;;;;;;;;;;;20.60;67.30;;;;;;5042423;27;87097;-42
2022/08/30 10:29:08;;;;;;;;;;;20.60;67.50;;;;;;5041028;28;88928;-42
2022/08/30 10:31:49;;;;;;;;;;;20.60;67.50;;;;;;5041822;27;89367;-42
2022/08/30 10:34:20;;;;;;;;;;;20.70;67.30;;;;;;5042283;27;87099;-42
2022/08/30 10:36:49;;;;;;;;;;;20.60;67.40;;;;;;5042295;27;87192;-42
2022/08/30 10:39:18;;;;;;;;;;;20.60;67.40;;;;;;5041791;28;88051;-42
2022/08/30 10:41:47;;;;;;;;;;;20.60;67.40;;;;;;5042618;27;86319;-42
2022/08/30 10:44:19;;;;;;;;;;;20.70;67.40;;;;;;5042229;27;86926;-42
2022/08/30 10:46:44;;;;;;;;;;;20.60;67.60;;;;;;5044356;27;89271;-42
2022/08/30 10:49:13;;;;;;;;;;;20.60;67.60;;;;;;5041530;27;87910;-42
2022/08/30 10:51:49;;;;;;;;;;;20.60;67.50;;;;;;5041872;27;88007;-42
2022/08/30 10:54:17;;;;;;;;;;;20.70;67.70;;;;;;5041920;27;87080;-43
2022/08/30 10:56:44;;;;;;;;;;;20.60;67.90;;;;;;5042046;27;87400;-42
2022/08/30 10:59:10;;;;;;;;;;;20.60;67.80;;;;;;5043272;27;88360;-42
2022/08/30 11:01:48;;;;;;;;;;;20.60;67.90;;;;;;5045632;27;87104;-43
2022/08/30 11:04:20;;;;;;;;;;;20.60;67.60;;;;;;5045324;27;89075;-42
2022/08/30 11:06:45;;;;;;;;;;;20.60;67.70;;;;;;5045604;28;87207;-43
2022/08/30 11:09:17;;;;;;;;;;;20.60;67.70;;;;;;5048325;28;86989;-42
2022/08/30 11:11:55;;;;;;;;;;;20.70;67.70;;;;;;5044885;27;89869;-42
2022/08/30 11:14:21;;;;;;;;;;;20.60;67.70;;;;;;5044459;27;87950;-42
2022/08/30 11:16:48;;;;;;;;;;;20.70;67.70;;;;;;5045197;28;88881;-43
2022/08/30 11:19:16;;;;;;;;;;;20.70;67.80;;;;;;5045032;28;87811;-42
2022/08/30 11:21:42;;;;;;;;;;;20.70;67.70;;;;;;5044538;28;86984;-42
2022/08/30 11:24:10;;;;;;;;;;;20.70;67.90;;;;;;5045370;27;88171;-42
2022/08/30 11:26:45;;;;;;;;;;;20.60;67.80;;;;;;5044679;27;88499;-42
2022/08/30 11:29:29;;;;;;;;;;;20.70;68.00;;;;;;5048088;27;87103;-42
2022/08/30 11:31:56;;;;;;;;;;;20.70;67.70;;;;;;5045293;27;87227;-43
2022/08/30 11:34:41;;;;;;;;;;;20.60;68.00;;;;;;5045037;27;87118;-42
2022/08/30 11:37:07;;;;;;;;;;;20.70;67.80;;;;;;5044905;27;88774;-42
2022/08/30 11:39:42;;;;;;;;;;;20.70;68.00;;;;;;5043750;27;88896;-42
2022/08/30 11:42:10;;;;;;;;;;;20.70;68.10;;;;;;5044909;27;86961;-42
2022/08/30 11:44:35;;;;;;;;;;;20.70;67.90;;;;;;5044714;27;88778;-42
2022/08/30 11:47:21;;;;;;;;;;;20.70;67.90;;;;;;5044591;28;87283;-42
2022/08/30 11:49:55;;;;;;;;;;;20.60;68.10;;;;;;5044634;28;87106;-43
2022/08/30 11:52:40;;;;;;;;;;;20.60;67.90;;;;;;5046378;28;87561;-49
2022/08/30 11:55:18;;;;;;;;;;;20.60;71.50;;;;;;5044838;28;87038;-42
2022/08/30 11:58:03;;;;;;;;;;;20.60;75.30;;;;;;5045093;27;88089;-40
2022/08/30 12:00:31;;;;;;;;;;;20.60;76.00;;;;;;5044146;27;89389;-42
2022/08/30 12:02:58;;;;;;;;;;;20.60;77.20;;;;;;5044297;28;87162;-40
2022/08/30 12:05:43;;;;;;;;;;;20.70;75.90;;;;;;5043591;27;88864;-42
2022/08/30 12:08:26;;;;;;;;;;;20.70;76.40;;;;;;5044095;28;89407;-42
2022/08/30 12:10:56;;;;;;;;;;;20.80;77.60;;;;;;5043346;27;87100;-43
2022/08/30 12:13:34;;;;;;;;;;;20.90;75.70;;;;;;5044503;27;87510;-42
2022/08/30 12:16:00;;;;;;;;;;;20.90;75.10;;;;;;5047038;28;87946;-43
2022/08/30 12:18:28;;;;;;;;;;;20.90;74.70;;;;;;5044155;28;88120;-43
2022/08/30 12:21:14;;;;;;;;;;;21.00;76.10;;;;;;5043796;28;87982;-43
2022/08/30 12:23:39;;;;;;;;;;;21.00;75.10;;;;;;5044808;27;86400;-42
2022/08/30 12:26:09;;;;;;;;;;;20.90;76.70;;;;;;5044206;27;87152;-43
2022/08/30 12:28:36;;;;;;;;;;;21.00;76.60;;;;;;5043634;28;88147;-42
2022/08/30 12:31:16;;;;;;;;;;;20.90;76.50;;;;;;5043300;28;88004;-42
2022/08/30 12:33:44;;;;;;;;;;;21.00;76.00;;;;;;5044162;28;89164;-42
2022/08/30 12:36:12;;;;;;;;;;;21.10;77.70;;;;;;5043640;28;88389;-41
2022/08/30 12:38:38;;;;;;;;;;;21.10;77.90;;;;;;5047309;28;86946;-42
2022/08/30 12:41:03;;;;;;;;;;;21.10;81.30;;;;;;5043595;28;88133;-42
2022/08/30 12:43:34;;;;;;;;;;;21.20;82.40;;;;;;5044002;28;87113;-43
2022/08/30 12:46:02;;;;;;;;;;;21.20;81.50;;;;;;5043841;28;89795;-43
2022/08/30 12:48:28;;;;;;;;;;;21.20;80.80;;;;;;5042507;28;89723;-43
2022/08/30 12:50:57;;;;;;;;;;;21.30;80.90;;;;;;5043887;28;87114;-43
2022/08/30 12:53:28;;;;;;;;;;;21.30;79.50;;;;;;5043690;27;87946;-42
2022/08/30 12:56:01;;;;;;;;;;;21.30;80.30;;;;;;5042743;28;87973;-42
2022/08/30 12:58:33;;;;;;;;;;;21.30;81.40;;;;;;5043712;28;87094;-42
2022/08/30 13:01:18;;;;;;;;;;;21.40;80.50;;;;;;5046275;27;88057;-42
2022/08/30 13:03:53;;;;;;;;;;;21.40;80.60;;;;;;5043543;27;87188;-42
2022/08/30 13:06:35;;;;;;;;;;;21.40;78.30;;;;;;5043801;27;87374;-43
2022/08/30 13:09:01;;;;;;;;;;;21.30;80.00;;;;;;5043138;28;87981;-42
2022/08/30 13:11:26;;;;;;;;;;;21.40;79.00;;;;;;5043435;28;87111;-42
2022/08/30 13:13:57;;;;;;;;;;;21.40;79.60;;;;;;5044044;27;87301;-42
2022/08/30 13:16:25;;;;;;;;;;;21.40;79.70;;;;;;5042952;28;89368;-43
2022/08/30 13:19:13;;;;;;;;;;;21.40;78.00;;;;;;5043533;28;87641;-42
2022/08/30 13:21:46;;;;;;;;;;;21.40;80.10;;;;;;5021350;27;88082;-39
2022/08/30 13:24:12;;;;;;;;;;;21.40;77.80;;;;;;5045931;28;88291;-42
2022/08/30 13:26:39;;;;;;;;;;;21.40;80.60;;;;;;5043380;28;87353;-42
2022/08/30 13:29:05;;;;;;;;;;;21.40;78.80;;;;;;5042667;27;89304;-44
2022/08/30 13:31:31;;;;;;;;;;;21.40;81.20;;;;;;5043118;28;87094;-43
2022/08/30 13:33:57;;;;;;;;;;;21.40;80.00;;;;;;5043068;28;89000;-41
2022/08/30 13:36:24;;;;;;;;;;;21.50;80.70;;;;;;5042833;28;87136;-42
2022/08/30 13:38:50;;;;;;;;;;;21.40;81.10;;;;;;5043596;28;86499;-44
2022/08/30 13:41:16;;;;;;;;;;;21.50;80.50;;;;;;5043279;28;86937;-42
2022/08/30 13:43:42;;;;;;;;;;;21.50;80.70;;;;;;5045389;28;88186;-46
2022/08/30 13:46:08;;;;;;;;;;;21.50;80.70;;;;;;5042156;27;88009;-42
2022/08/30 13:48:34;;;;;;;;;;;21.50;81.00;;;;;;5042397;28;89451;-43
2022/08/30 13:50:59;;;;;;;;;;;21.50;79.90;;;;;;5042905;28;87107;-42
2022/08/30 13:53:25;;;;;;;;;;;21.50;80.70;;;;;;5042867;28;87466;-39
2022/08/30 13:55:50;;;;;;;;;;;21.50;81.40;;;;;;5042560;28;87867;-45
2022/08/30 13:58:16;;;;;;;;;;;21.60;80.40;;;;;;5042659;28;87115;-42
2022/08/30 14:00:42;;;;;;;;;;;21.60;81.10;;;;;;5042678;27;87927;-38
2022/08/30 14:03:08;;;;;;;;;;;21.60;79.60;;;;;;5042807;28;87866;-40
2022/08/30 14:05:34;;;;;;;;;;;21.70;79.70;;;;;;5045872;28;87419;-38
2022/08/30 14:08:00;;;;;;;;;;;21.70;79.70;;;;;;5042280;28;88345;-39
2022/08/30 14:10:26;;;;;;;;;;;21.70;80.00;;;;;;5041824;28;88014;-42
2022/08/30 14:12:52;;;;;;;;;;;21.70;79.60;;;;;;5042593;28;88253;-41
2022/08/30 14:15:17;;;;;;;;;;;21.70;80.20;;;;;;5042146;28;88010;-39
2022/08/30 14:17:43;;;;;;;;;;;21.80;79.50;;;;;;5042369;28;88175;-43
2022/08/30 14:20:09;;;;;;;;;;;21.80;79.80;;;;;;5042638;27;87455;-41
2022/08/30 14:22:34;;;;;;;;;;;21.70;77.80;;;;;;5041586;28;88056;-43
2022/08/30 14:25:00;;;;;;;;;;;21.80;77.10;;;;;;5042699;28;87032;-43
2022/08/30 14:27:26;;;;;;;;;;;21.80;77.90;;;;;;5045767;28;87326;-42